createdAt,value
2019-03-08T00:01:06.688Z,100.00
2019-03-08T00:03:38.332Z,100.00
2019-03-08T00:06:09.941Z,100.00
2019-03-08T00:08:41.846Z,100.00
2019-03-08T00:11:13.622Z,100.00
2019-03-08T00:13:45.302Z,100.00
2019-03-08T00:16:19.152Z,100.00
2019-03-08T00:18:53.972Z,100.00
2019-03-08T00:21:25.544Z,100.00
2019-03-08T00:23:57.365Z,100.00
2019-03-08T00:26:29.114Z,100.00
2019-03-08T00:29:00.897Z,100.00
2019-03-08T00:31:32.695Z,100.00
2019-03-08T00:34:04.455Z,100.00
2019-03-08T00:36:36.143Z,100.00
2019-03-08T00:39:08.585Z,100.00
2019-03-08T00:41:41.422Z,100.00
2019-03-08T00:44:13.503Z,100.00
2019-03-08T00:46:45.155Z,100.00
2019-03-08T00:49:16.856Z,100.00
2019-03-08T00:51:48.563Z,100.00
2019-03-08T00:54:20.243Z,100.00
2019-03-08T00:56:53.372Z,100.00
2019-03-08T00:59:25.118Z,100.00
2019-03-08T01:01:56.853Z,100.00
2019-03-08T01:04:28.559Z,100.00
2019-03-08T01:07:00.340Z,100.00
2019-03-08T01:09:32.264Z,100.00
2019-03-08T01:12:04.067Z,100.00
2019-03-08T01:14:35.900Z,100.00
2019-03-08T01:17:07.494Z,100.00
2019-03-08T01:19:39.583Z,100.00
2019-03-08T01:22:12.503Z,100.00
2019-03-08T01:24:44.074Z,100.00
2019-03-08T01:27:15.684Z,100.00
2019-03-08T01:29:47.633Z,100.00
2019-03-08T01:32:19.526Z,100.00
2019-03-08T01:34:51.600Z,100.00
2019-03-08T01:37:23.331Z,100.00
2019-03-08T01:39:55.050Z,100.00
2019-03-08T01:42:26.783Z,100.00
2019-03-08T01:44:58.536Z,100.00
2019-03-08T01:47:30.233Z,100.00
2019-03-08T01:50:04.843Z,100.00
2019-03-08T01:52:36.680Z,100.00
2019-03-08T01:55:08.631Z,100.00
2019-03-08T01:57:40.350Z,100.00
2019-03-08T02:00:16.287Z,100.00
2019-03-08T02:02:48.390Z,100.00
2019-03-08T02:05:20.659Z,100.00
2019-03-08T02:07:52.406Z,100.00
2019-03-08T02:10:24.077Z,100.00
2019-03-08T02:12:55.904Z,100.00
2019-03-08T02:15:27.628Z,100.00
2019-03-08T02:17:59.482Z,100.00
2019-03-08T02:20:31.126Z,100.00
2019-03-08T02:23:02.905Z,100.00
2019-03-08T02:25:34.575Z,100.00
2019-03-08T02:28:06.382Z,100.00
2019-03-08T02:30:38.177Z,100.00
2019-03-08T02:33:09.890Z,100.00
2019-03-08T02:35:43.608Z,100.00
2019-03-08T02:38:15.533Z,100.00
2019-03-08T02:40:47.662Z,100.00
2019-03-08T02:43:20.344Z,100.00
2019-03-08T02:45:52.003Z,100.00
2019-03-08T02:48:23.705Z,100.00
2019-03-08T02:50:55.493Z,100.00
2019-03-08T02:53:27.252Z,100.00
2019-03-08T02:55:58.968Z,100.00
2019-03-08T02:58:30.628Z,100.00
2019-03-08T03:01:02.508Z,100.00
2019-03-08T03:03:34.709Z,100.00
2019-03-08T03:06:06.580Z,100.00
2019-03-08T03:08:38.359Z,100.00
2019-03-08T03:11:10.028Z,100.00
2019-03-08T03:13:41.948Z,100.00
2019-03-08T03:16:14.958Z,100.00
2019-03-08T03:18:46.540Z,100.00
2019-03-08T03:21:18.260Z,100.00
2019-03-08T03:23:50.128Z,100.00
2019-03-08T03:26:21.900Z,100.00
2019-03-08T03:28:53.616Z,100.00
2019-03-08T03:31:26.603Z,100.00
2019-03-08T03:33:58.258Z,100.00
2019-03-08T03:36:30.087Z,100.00
2019-03-08T03:39:01.890Z,100.00
2019-03-08T03:41:35.218Z,100.00
2019-03-08T03:44:06.787Z,100.00
2019-03-08T03:46:38.383Z,100.00
2019-03-08T03:49:10.163Z,100.00
2019-03-08T03:51:41.973Z,100.00
2019-03-08T03:54:13.441Z,100.00
2019-03-08T03:56:46.775Z,100.00
2019-03-08T03:59:18.610Z,100.00
2019-03-08T04:01:51.254Z,100.00
2019-03-08T04:04:23.029Z,100.00
2019-03-08T04:06:54.799Z,100.00
2019-03-08T04:09:27.593Z,100.00
2019-03-08T04:11:59.330Z,100.00
2019-03-08T04:14:30.942Z,100.00
2019-03-08T04:17:02.726Z,100.00
2019-03-08T04:19:34.299Z,100.00
2019-03-08T04:22:05.991Z,100.00
2019-03-08T04:24:37.608Z,100.00
2019-03-08T04:27:09.384Z,100.00
2019-03-08T04:29:41.092Z,100.00
2019-03-08T04:32:12.858Z,100.00
2019-03-08T04:34:44.789Z,100.00
2019-03-08T04:37:16.676Z,100.00
2019-03-08T04:39:48.426Z,100.00
2019-03-08T04:42:20.098Z,100.00
2019-03-08T04:44:54.587Z,100.00
2019-03-08T04:47:26.310Z,100.00
2019-03-08T04:49:58.015Z,100.00
2019-03-08T04:52:29.673Z,100.00
2019-03-08T04:55:01.402Z,100.00
2019-03-08T04:57:33.252Z,100.00
2019-03-08T05:00:05.122Z,100.00
2019-03-08T05:02:36.993Z,100.00
2019-03-08T05:05:08.850Z,100.00
2019-03-08T05:07:40.704Z,100.00
2019-03-08T05:10:14.067Z,100.00
2019-03-08T05:12:46.037Z,100.00
2019-03-08T05:15:17.908Z,100.00
2019-03-08T05:17:51.054Z,100.00
2019-03-08T05:20:22.833Z,100.00
2019-03-08T05:22:54.709Z,100.00
2019-03-08T05:25:28.739Z,100.00
2019-03-08T05:28:00.480Z,100.00
2019-03-08T05:30:32.209Z,100.00
2019-03-08T05:33:03.944Z,100.00
2019-03-08T05:35:35.969Z,100.00
2019-03-08T05:38:07.707Z,100.00
2019-03-08T05:40:40.622Z,100.00
2019-03-08T05:43:12.331Z,100.00
2019-03-08T05:45:44.071Z,100.00
2019-03-08T05:48:20.091Z,100.00
2019-03-08T05:50:51.864Z,100.00
2019-03-08T05:53:23.522Z,100.00
2019-03-08T05:55:55.293Z,100.00
2019-03-08T05:58:27.045Z,100.00
2019-03-08T06:01:01.461Z,100.00
2019-03-08T06:03:33.274Z,100.00
2019-03-08T06:06:05.050Z,100.00
2019-03-08T06:08:36.661Z,100.00
2019-03-08T06:11:08.618Z,100.00
2019-03-08T06:13:40.306Z,100.00
2019-03-08T06:16:12.160Z,100.00
2019-03-08T06:18:44.076Z,100.00
2019-03-08T06:21:15.768Z,100.00
2019-03-08T06:23:47.298Z,100.00
2019-03-08T06:26:19.009Z,100.00
2019-03-08T06:28:53.858Z,100.00
2019-03-08T06:31:25.729Z,100.00
2019-03-08T06:33:59.154Z,100.00
2019-03-08T06:36:30.829Z,100.00
2019-03-08T06:39:02.579Z,100.00
2019-03-08T06:41:35.700Z,100.00
2019-03-08T06:44:07.580Z,100.00
2019-03-08T06:46:39.495Z,100.00
2019-03-08T06:49:11.327Z,100.00
2019-03-08T06:51:43.123Z,100.00
2019-03-08T06:54:14.934Z,100.00
2019-03-08T06:56:46.855Z,100.00
2019-03-08T06:59:24.954Z,100.00
2019-03-08T07:01:56.706Z,100.00
2019-03-08T07:04:28.619Z,100.00
2019-03-08T07:07:00.329Z,100.00
2019-03-08T07:09:32.109Z,100.00
2019-03-08T07:12:03.881Z,100.00
2019-03-08T07:14:38.296Z,100.00
2019-03-08T07:17:10.074Z,100.00
2019-03-08T07:19:57.488Z,100.00
2019-03-08T07:22:52.529Z,100.00
2019-03-08T07:25:51.103Z,100.00
2019-03-08T07:28:36.020Z,100.00
2019-03-08T07:31:35.888Z,100.00
2019-03-08T07:34:16.916Z,100.00
2019-03-08T07:37:08.460Z,100.00
2019-03-08T07:39:53.044Z,100.00
2019-03-08T07:42:42.280Z,100.00
2019-03-08T07:45:33.364Z,100.00
2019-03-08T07:48:20.917Z,100.00
2019-03-08T07:51:14.860Z,100.00
2019-03-08T07:53:57.351Z,100.00
2019-03-08T07:56:41.794Z,100.00
2019-03-08T07:59:53.646Z,100.00
2019-03-08T08:02:48.774Z,100.00
2019-03-08T08:05:39.224Z,100.00
2019-03-08T08:08:24.143Z,100.00
2019-03-08T08:11:13.446Z,100.00
2019-03-08T08:14:01.117Z,100.00
2019-03-08T08:16:51.771Z,99.39
2019-03-08T08:19:40.973Z,96.24
2019-03-08T08:22:46.863Z,99.04
2019-03-08T08:25:37.007Z,97.40
2019-03-08T08:28:16.713Z,93.34
2019-03-08T08:31:06.598Z,91.21
2019-03-08T08:33:57.116Z,92.62
2019-03-08T08:36:41.938Z,92.18
2019-03-08T08:39:32.220Z,92.11
2019-03-08T08:42:22.728Z,88.05
2019-03-08T08:45:12.618Z,87.27
2019-03-08T08:48:01.850Z,84.20
2019-03-08T08:50:55.198Z,84.15
2019-03-08T08:54:00.656Z,82.56
2019-03-08T08:56:50.406Z,81.09
2019-03-08T08:59:39.556Z,80.35
2019-03-08T09:02:28.418Z,79.78
2019-03-08T09:05:11.339Z,79.34
2019-03-08T09:08:13.890Z,79.63
2019-03-08T09:11:07.243Z,77.63
2019-03-08T09:13:52.741Z,76.50
2019-03-08T09:16:34.741Z,76.55
2019-03-08T09:19:25.367Z,75.64
2019-03-08T09:22:34.293Z,74.51
2019-03-08T09:25:18.772Z,73.75
2019-03-08T09:27:57.116Z,72.19
2019-03-08T09:30:36.397Z,71.80
2019-03-08T09:33:23.615Z,69.06
2019-03-08T09:36:14.137Z,68.08
2019-03-08T09:39:13.657Z,66.00
2019-03-08T09:42:04.173Z,65.89
2019-03-08T09:44:52.882Z,65.88
2019-03-08T09:47:43.106Z,63.87
2019-03-08T09:50:51.848Z,61.69
2019-03-08T09:53:35.915Z,62.43
2019-03-08T09:56:15.043Z,61.98
2019-03-08T09:59:03.442Z,59.34
2019-03-08T10:01:46.662Z,59.61
2019-03-08T10:04:35.494Z,57.12
2019-03-08T10:07:25.817Z,58.23
2019-03-08T10:10:08.169Z,56.17
2019-03-08T10:13:04.743Z,54.71
2019-03-08T10:15:47.490Z,53.75
2019-03-08T10:18:46.667Z,53.55
2019-03-08T10:21:28.408Z,53.51
2019-03-08T10:24:21.514Z,52.41
2019-03-08T10:27:03.591Z,49.99
2019-03-08T10:30:06.339Z,51.73
2019-03-08T10:33:03.342Z,52.13
2019-03-08T10:35:53.633Z,49.73
2019-03-08T10:38:36.535Z,49.78
2019-03-08T10:41:16.929Z,48.24
2019-03-08T10:44:09.092Z,47.79
2019-03-08T10:47:12.552Z,47.31
2019-03-08T10:49:55.448Z,47.42
2019-03-08T10:52:40.097Z,46.54
2019-03-08T10:55:46.331Z,45.96
2019-03-08T10:58:35.425Z,47.84
2019-03-08T11:01:22.403Z,45.47
2019-03-08T11:04:14.808Z,45.64
2019-03-08T11:07:11.785Z,44.99
2019-03-08T11:09:50.034Z,43.78
2019-03-08T11:12:47.032Z,43.92
2019-03-08T11:15:43.722Z,45.25
2019-03-08T11:18:22.743Z,44.73
2019-03-08T11:21:12.078Z,42.69
2019-03-08T11:23:51.155Z,43.99
2019-03-08T11:27:04.748Z,42.88
2019-03-08T11:29:48.606Z,42.29
2019-03-08T11:32:34.671Z,42.29
2019-03-08T11:35:28.371Z,41.37
2019-03-08T11:38:34.030Z,41.28
2019-03-08T11:41:31.455Z,41.96
2019-03-08T11:44:09.778Z,41.50
2019-03-08T11:47:18.395Z,41.24
2019-03-08T11:50:20.809Z,41.18
2019-03-08T11:53:05.593Z,41.12
2019-03-08T11:56:02.311Z,41.69
2019-03-08T11:58:58.851Z,42.86
2019-03-08T12:01:42.609Z,45.06
2019-03-08T12:04:36.076Z,44.62
2019-03-08T12:07:29.309Z,45.23
2019-03-08T12:10:18.440Z,46.40
2019-03-08T12:13:06.679Z,47.71
2019-03-08T12:16:15.397Z,48.65
2019-03-08T12:19:08.938Z,50.29
2019-03-08T12:21:59.463Z,50.45
2019-03-08T12:24:36.652Z,51.85
2019-03-08T12:27:23.682Z,54.28
2019-03-08T12:30:17.032Z,54.09
2019-03-08T12:33:25.799Z,54.29
2019-03-08T12:36:08.359Z,55.33
2019-03-08T12:38:53.126Z,57.63
2019-03-08T12:41:42.097Z,58.65
2019-03-08T12:44:25.285Z,58.26
2019-03-08T12:47:14.366Z,58.48
2019-03-08T12:50:22.727Z,59.63
2019-03-08T12:53:13.223Z,61.11
2019-03-08T12:56:02.493Z,62.13
2019-03-08T12:58:46.152Z,64.36
2019-03-08T13:01:24.964Z,65.97
2019-03-08T13:04:13.363Z,65.74
2019-03-08T13:07:13.025Z,66.02
2019-03-08T13:09:51.005Z,67.09
2019-03-08T13:12:22.571Z,67.26
2019-03-08T13:14:54.283Z,68.19
2019-03-08T13:17:25.958Z,68.28
2019-03-08T13:19:57.869Z,69.36
2019-03-08T13:22:29.760Z,69.49
2019-03-08T13:25:01.542Z,69.68
2019-03-08T13:27:33.490Z,70.79
2019-03-08T13:30:05.598Z,71.29
2019-03-08T13:32:37.492Z,71.15
2019-03-08T13:35:09.902Z,71.79
2019-03-08T13:37:41.488Z,72.30
2019-03-08T13:40:13.988Z,73.46
2019-03-08T13:42:45.641Z,74.55
2019-03-08T13:45:17.877Z,75.14
2019-03-08T13:47:49.424Z,76.78
2019-03-08T13:50:21.272Z,77.90
2019-03-08T13:52:53.081Z,79.63
2019-03-08T13:55:24.713Z,80.19
2019-03-08T13:57:56.405Z,81.43
2019-03-08T14:00:28.123Z,82.36
2019-03-08T14:02:59.812Z,82.26
2019-03-08T14:05:31.783Z,82.06
2019-03-08T14:08:03.501Z,81.11
2019-03-08T14:10:36.360Z,80.47
2019-03-08T14:13:07.964Z,81.53
2019-03-08T14:15:40.133Z,79.97
2019-03-08T14:18:11.886Z,79.94
2019-03-08T14:20:43.801Z,80.28
2019-03-08T14:23:15.685Z,80.45
2019-03-08T14:25:47.440Z,81.62
2019-03-08T14:28:19.259Z,81.64
2019-03-08T14:30:58.061Z,82.14
2019-03-08T14:33:30.156Z,82.25
2019-03-08T14:36:03.045Z,82.59
2019-03-08T14:38:39.050Z,82.44
2019-03-08T14:41:19.259Z,83.00
2019-03-08T14:43:56.295Z,83.87
2019-03-08T14:46:41.747Z,84.30
2019-03-08T14:49:13.479Z,84.99
2019-03-08T14:51:48.202Z,84.49
2019-03-08T14:54:18.630Z,84.97
2019-03-08T14:56:50.341Z,85.71
2019-03-08T14:59:22.027Z,86.79
2019-03-08T15:01:53.675Z,87.39
2019-03-08T15:04:25.237Z,88.30
2019-03-08T15:06:57.084Z,89.30
2019-03-08T15:09:29.403Z,89.66
2019-03-08T15:12:02.178Z,89.75
2019-03-08T15:14:35.243Z,89.86
2019-03-08T15:17:09.353Z,90.23
2019-03-08T15:19:41.818Z,90.44
2019-03-08T15:22:13.720Z,90.36
2019-03-08T15:24:45.797Z,89.75
2019-03-08T15:27:17.517Z,88.80
2019-03-08T15:29:54.463Z,87.37
2019-03-08T15:32:22.543Z,85.23
2019-03-08T15:34:54.906Z,83.56
2019-03-08T15:37:26.584Z,82.83
2019-03-08T15:39:58.413Z,82.66
2019-03-08T15:42:30.080Z,82.24
2019-03-08T15:45:05.397Z,81.84
2019-03-08T15:47:36.215Z,81.28
2019-03-08T15:50:10.954Z,80.54
2019-03-08T15:52:42.573Z,80.15
2019-03-08T15:55:14.283Z,78.75
2019-03-08T15:57:45.826Z,78.10
2019-03-08T16:00:22.080Z,77.53
2019-03-08T16:02:54.714Z,77.52
2019-03-08T16:05:28.337Z,78.04
2019-03-08T16:08:01.636Z,78.45
2019-03-08T16:10:33.330Z,78.51
2019-03-08T16:13:05.284Z,78.14
2019-03-08T16:15:37.116Z,77.59
2019-03-08T16:18:08.843Z,77.19
2019-03-08T16:20:40.794Z,76.81
2019-03-08T16:23:12.646Z,76.52
2019-03-08T16:25:47.659Z,76.66
2019-03-08T16:28:17.504Z,76.45
2019-03-08T16:30:53.254Z,76.75
2019-03-08T16:33:36.802Z,76.72
2019-03-08T16:36:16.123Z,77.27
2019-03-08T16:39:11.321Z,77.58
2019-03-08T16:42:00.690Z,78.16
2019-03-08T16:44:51.035Z,78.44
2019-03-08T16:47:53.184Z,78.81
2019-03-08T16:50:34.785Z,79.14
2019-03-08T16:53:16.314Z,79.44
2019-03-08T16:56:05.425Z,79.62
2019-03-08T16:58:58.633Z,80.01
2019-03-08T17:01:42.114Z,80.58
2019-03-08T17:04:47.744Z,81.33
2019-03-08T17:07:40.878Z,82.07
2019-03-08T17:10:35.220Z,83.03
2019-03-08T17:13:14.202Z,84.25
2019-03-08T17:16:10.644Z,84.47
2019-03-08T17:19:01.023Z,85.63
2019-03-08T17:21:58.398Z,85.79
2019-03-08T17:24:42.686Z,86.46
2019-03-08T17:27:33.036Z,86.63
2019-03-08T17:30:21.606Z,87.02
2019-03-08T17:33:20.948Z,86.92
2019-03-08T17:36:26.641Z,87.43
2019-03-08T17:39:31.928Z,87.20
2019-03-08T17:42:20.552Z,86.81
2019-03-08T17:45:23.024Z,87.14
2019-03-08T17:48:14.638Z,87.30
2019-03-08T17:51:05.157Z,87.09
2019-03-08T17:53:53.654Z,86.63
2019-03-08T17:56:34.445Z,86.61
2019-03-08T17:59:40.320Z,86.56
2019-03-08T18:02:21.581Z,87.24
2019-03-08T18:05:12.314Z,87.38
2019-03-08T18:08:02.817Z,87.63
2019-03-08T18:10:51.255Z,87.12
2019-03-08T18:13:41.649Z,86.48
2019-03-08T18:16:31.099Z,85.76
2019-03-08T18:19:20.859Z,85.56
2019-03-08T18:21:58.388Z,85.45
2019-03-08T18:24:39.985Z,85.96
2019-03-08T18:27:29.315Z,85.45
2019-03-08T18:30:19.717Z,85.74
2019-03-08T18:33:19.295Z,86.32
2019-03-08T18:36:13.650Z,86.58
2019-03-08T18:39:19.425Z,87.28
2019-03-08T18:42:09.964Z,87.28
2019-03-08T18:45:03.769Z,87.82
2019-03-08T18:47:57.344Z,88.11
2019-03-08T18:50:50.465Z,88.46
2019-03-08T18:53:45.515Z,88.53
2019-03-08T18:56:28.443Z,89.16
2019-03-08T18:59:11.361Z,89.91
2019-03-08T19:01:51.239Z,90.20
2019-03-08T19:04:50.599Z,91.02
2019-03-08T19:07:40.262Z,92.02
2019-03-08T19:10:33.732Z,92.87
2019-03-08T19:13:22.930Z,93.08
2019-03-08T19:16:03.650Z,93.28
2019-03-08T19:18:49.308Z,93.52
2019-03-08T19:21:38.829Z,94.32
2019-03-08T19:24:27.969Z,96.01
2019-03-08T19:27:36.561Z,96.15
2019-03-08T19:30:33.950Z,96.64
2019-03-08T19:33:28.038Z,97.20
2019-03-08T19:36:21.571Z,98.11
2019-03-08T19:39:18.139Z,98.91
2019-03-08T19:42:17.409Z,99.46
2019-03-08T19:45:00.826Z,100.00
2019-03-08T19:47:52.287Z,100.00
2019-03-08T19:50:48.928Z,100.00
2019-03-08T19:53:48.008Z,100.00
2019-03-08T19:56:53.585Z,100.00
2019-03-08T19:59:31.077Z,100.00
2019-03-08T20:02:41.748Z,100.00
2019-03-08T20:05:41.195Z,100.00
2019-03-08T20:08:47.059Z,100.00
2019-03-08T20:11:43.249Z,100.00
2019-03-08T20:14:27.603Z,100.00
2019-03-08T20:17:16.578Z,100.00
2019-03-08T20:23:01.619Z,100.00
2019-03-08T20:28:29.160Z,100.00
2019-03-08T20:31:31.360Z,100.00
2019-03-08T20:34:20.440Z,100.00
2019-03-08T20:37:02.508Z,100.00
2019-03-08T20:42:56.571Z,100.00
2019-03-08T20:48:17.100Z,100.00
2019-03-08T20:56:09.930Z,100.00
2019-03-08T21:01:22.799Z,100.00
2019-03-08T21:03:54.716Z,100.00
2019-03-08T21:06:26.476Z,100.00
2019-03-08T21:14:20.529Z,100.00
2019-03-08T21:22:14.766Z,100.00
2019-03-08T21:30:16.803Z,100.00
2019-03-08T21:35:29.639Z,100.00
2019-03-08T21:38:01.503Z,100.00
2019-03-08T21:43:14.298Z,100.00
2019-03-08T21:45:46.416Z,100.00
2019-03-08T21:50:59.150Z,100.00
2019-03-08T21:53:30.866Z,100.00
2019-03-08T22:01:23.506Z,100.00
2019-03-08T22:04:00.806Z,100.00
2019-03-08T22:06:32.646Z,100.00
2019-03-08T22:09:17.675Z,100.00
2019-03-08T22:11:49.475Z,100.00
2019-03-08T22:14:21.272Z,100.00
2019-03-08T22:16:52.957Z,100.00
2019-03-08T22:19:24.641Z,100.00
2019-03-08T22:21:56.662Z,100.00
2019-03-08T22:24:28.260Z,100.00
2019-03-08T22:26:59.941Z,100.00
2019-03-08T22:29:31.658Z,99.40
2019-03-08T22:32:03.456Z,99.50
2019-03-08T22:34:35.182Z,98.62
2019-03-08T22:37:06.814Z,98.84
2019-03-08T22:39:38.585Z,99.23
2019-03-08T22:42:10.363Z,99.27
2019-03-08T22:44:42.312Z,99.17
2019-03-08T22:47:14.010Z,99.51
2019-03-08T22:49:45.723Z,99.55
2019-03-08T22:52:17.408Z,99.65
2019-03-08T22:54:49.278Z,99.88
2019-03-08T22:57:20.963Z,100.00
2019-03-08T22:59:52.825Z,100.00
2019-03-08T23:02:25.489Z,100.00
2019-03-08T23:04:57.203Z,100.00
2019-03-08T23:07:29.061Z,100.00
2019-03-08T23:10:00.909Z,100.00
2019-03-08T23:12:34.069Z,100.00
2019-03-08T23:15:06.001Z,100.00
2019-03-08T23:17:37.991Z,100.00
2019-03-08T23:20:09.666Z,100.00
2019-03-08T23:22:41.402Z,100.00
2019-03-08T23:25:13.028Z,100.00
2019-03-08T23:27:52.929Z,100.00
2019-03-08T23:30:27.773Z,100.00
2019-03-08T23:32:59.449Z,100.00
2019-03-08T23:35:31.222Z,100.00
2019-03-08T23:38:02.888Z,100.00
2019-03-08T23:40:34.689Z,100.00
2019-03-08T23:43:06.471Z,100.00
2019-03-08T23:45:38.199Z,100.00
2019-03-08T23:48:10.227Z,100.00
2019-03-08T23:50:42.112Z,100.00
2019-03-08T23:53:13.765Z,100.00
2019-03-08T23:55:46.962Z,100.00
2019-03-08T23:58:18.567Z,100.00
